createdAt,value
2017-08-02T00:00:32.526Z,15.43
2017-08-02T00:03:00.733Z,16.98
2017-08-02T00:05:28.916Z,15.85
2017-08-02T00:07:57.084Z,16.42
2017-08-02T00:10:25.280Z,15.32
2017-08-02T00:12:53.457Z,15.00
2017-08-02T00:15:21.624Z,14.20
2017-08-02T00:17:49.827Z,14.73
2017-08-02T00:20:18.002Z,15.73
2017-08-02T00:22:46.169Z,15.95
2017-08-02T00:25:14.369Z,14.82
2017-08-02T00:27:43.308Z,14.77
2017-08-02T00:30:11.481Z,14.43
2017-08-02T00:32:39.684Z,14.57
2017-08-02T00:35:07.857Z,12.48
2017-08-02T00:37:36.026Z,14.95
2017-08-02T00:40:04.235Z,13.32
2017-08-02T00:42:33.174Z,14.20
2017-08-02T00:45:01.347Z,13.77
2017-08-02T00:47:29.549Z,13.35
2017-08-02T00:49:57.725Z,13.18
2017-08-02T00:52:25.896Z,13.40
2017-08-02T00:54:54.140Z,12.98
2017-08-02T00:57:22.314Z,13.65
2017-08-02T00:59:50.493Z,13.38
2017-08-02T01:02:18.688Z,12.68
2017-08-02T01:04:46.856Z,12.15
2017-08-02T01:07:15.022Z,13.05
2017-08-02T01:09:43.224Z,12.57
2017-08-02T01:12:11.404Z,12.93
2017-08-02T01:14:39.573Z,13.52
2017-08-02T01:17:07.781Z,14.10
2017-08-02T01:19:36.725Z,12.57
2017-08-02T01:22:04.890Z,14.00
2017-08-02T01:24:33.088Z,12.77
2017-08-02T01:27:01.268Z,13.30
2017-08-02T01:29:29.437Z,12.48
2017-08-02T01:31:57.636Z,13.18
2017-08-02T01:34:26.582Z,13.52
2017-08-02T01:36:54.756Z,13.10
2017-08-02T01:39:23.035Z,12.48
2017-08-02T01:41:51.200Z,13.02
2017-08-02T01:44:19.373Z,11.70
2017-08-02T01:46:47.573Z,13.50
2017-08-02T01:49:15.748Z,12.35
2017-08-02T01:51:43.914Z,12.18
2017-08-02T01:54:12.121Z,12.30
2017-08-02T01:56:40.285Z,12.23
2017-08-02T01:59:08.461Z,12.68
2017-08-02T02:01:36.666Z,12.70
2017-08-02T02:04:05.604Z,12.00
2017-08-02T02:06:33.781Z,11.25
2017-08-02T02:09:01.978Z,11.55
2017-08-02T02:11:30.149Z,11.43
2017-08-02T02:13:58.323Z,12.48
2017-08-02T02:16:26.523Z,11.68
2017-08-02T02:18:55.463Z,11.10
2017-08-02T02:21:23.629Z,12.35
2017-08-02T02:23:52.144Z,11.30
2017-08-02T02:26:20.317Z,11.63
2017-08-02T02:28:48.493Z,11.77
2017-08-02T02:31:16.687Z,13.65
2017-08-02T02:33:44.866Z,10.55
2017-08-02T02:36:13.800Z,11.82
2017-08-02T02:38:42.004Z,11.95
2017-08-02T02:41:10.174Z,12.43
2017-08-02T02:43:38.321Z,12.00
2017-08-02T02:46:06.508Z,12.13
2017-08-02T02:48:34.669Z,10.60
2017-08-02T02:51:02.818Z,10.88
2017-08-02T02:53:31.775Z,11.18
2017-08-02T02:55:59.941Z,9.82
2017-08-02T02:58:28.099Z,10.77
2017-08-02T03:00:56.297Z,11.48
2017-08-02T03:03:24.460Z,12.20
2017-08-02T03:05:54.246Z,12.05
2017-08-02T03:08:22.426Z,10.65
2017-08-02T03:10:50.578Z,11.65
2017-08-02T03:13:18.749Z,10.70
2017-08-02T03:15:47.690Z,10.75
2017-08-02T03:18:15.839Z,10.23
2017-08-02T03:20:43.986Z,10.77
2017-08-02T03:23:12.934Z,10.32
2017-08-02T03:25:41.111Z,10.95
2017-08-02T03:28:09.277Z,11.40
2017-08-02T03:30:37.479Z,10.80
2017-08-02T03:33:05.652Z,10.00
2017-08-02T03:35:33.803Z,10.70
2017-08-02T03:38:01.987Z,10.45
2017-08-02T03:40:30.134Z,10.77
2017-08-02T03:42:59.261Z,11.65
2017-08-02T03:45:27.457Z,11.57
2017-08-02T03:47:55.626Z,10.35
2017-08-02T03:50:23.821Z,10.40
2017-08-02T03:52:52.001Z,11.23
2017-08-02T03:55:20.174Z,11.98
2017-08-02T03:57:48.329Z,10.80
2017-08-02T04:00:16.549Z,11.50
2017-08-02T04:02:44.698Z,11.15
2017-08-02T04:05:12.874Z,12.10
2017-08-02T04:07:41.046Z,11.60
2017-08-02T04:10:09.222Z,11.43
2017-08-02T04:12:37.373Z,11.73
2017-08-02T04:15:05.574Z,11.48
2017-08-02T04:17:33.745Z,11.57
2017-08-02T04:20:01.915Z,11.43
2017-08-02T04:22:30.089Z,11.15
2017-08-02T04:24:58.246Z,11.07
2017-08-02T04:27:26.412Z,12.18
2017-08-02T04:29:54.897Z,12.98
2017-08-02T04:32:23.066Z,13.15
2017-08-02T04:34:51.210Z,13.38
2017-08-02T04:37:20.170Z,13.02
2017-08-02T04:39:48.353Z,13.48
2017-08-02T04:42:16.505Z,12.70
2017-08-02T04:44:44.704Z,14.70
2017-08-02T04:47:12.864Z,12.88
2017-08-02T04:49:41.039Z,13.85
2017-08-02T04:52:09.223Z,13.55
2017-08-02T04:54:37.402Z,14.77
2017-08-02T04:57:05.554Z,14.15
2017-08-02T04:59:34.157Z,13.80
2017-08-02T05:02:02.327Z,13.35
2017-08-02T05:04:30.478Z,15.18
2017-08-02T05:06:58.678Z,13.00
2017-08-02T05:09:26.829Z,12.88
2017-08-02T05:11:54.977Z,13.50
2017-08-02T05:14:23.155Z,14.13
2017-08-02T05:16:51.328Z,12.37
2017-08-02T05:19:19.479Z,13.73
2017-08-02T05:21:48.427Z,14.48
2017-08-02T05:24:16.579Z,15.73
2017-08-02T05:26:44.734Z,14.75
2017-08-02T05:29:12.940Z,15.40
2017-08-02T05:31:41.093Z,14.93
2017-08-02T05:34:09.257Z,15.38
2017-08-02T05:36:37.439Z,15.15
2017-08-02T05:39:05.586Z,15.60
2017-08-02T05:41:34.504Z,14.18
2017-08-02T05:44:02.704Z,18.70
2017-08-02T05:46:30.868Z,14.55
2017-08-02T05:48:59.021Z,15.95
2017-08-02T05:51:27.206Z,16.23
2017-08-02T05:53:55.381Z,15.82
2017-08-02T05:56:23.530Z,14.98
2017-08-02T05:58:52.074Z,16.58
2017-08-02T06:01:20.250Z,13.23
2017-08-02T06:03:48.421Z,14.93
2017-08-02T06:06:16.621Z,14.10
2017-08-02T06:08:44.792Z,13.32
2017-08-02T06:11:12.954Z,13.90
2017-08-02T06:13:41.167Z,13.93
2017-08-02T06:16:09.314Z,12.68
2017-08-02T06:18:37.490Z,14.18
2017-08-02T06:21:05.670Z,13.00
2017-08-02T06:23:33.821Z,12.02
2017-08-02T06:26:01.977Z,12.15
2017-08-02T06:28:30.160Z,9.90
2017-08-02T06:30:58.332Z,10.90
2017-08-02T06:33:26.496Z,12.32
2017-08-02T06:35:54.714Z,10.65
2017-08-02T06:38:22.868Z,11.10
2017-08-02T06:40:51.040Z,10.40
2017-08-02T06:43:19.221Z,10.85
2017-08-02T06:45:47.365Z,10.57
2017-08-02T06:48:15.533Z,10.75
2017-08-02T06:50:43.704Z,10.43
2017-08-02T06:53:12.728Z,11.02
2017-08-02T06:55:40.898Z,13.48
2017-08-02T06:58:09.084Z,12.48
2017-08-02T07:00:37.262Z,10.30
2017-08-02T07:03:05.418Z,11.18
2017-08-02T07:05:33.611Z,11.00
2017-08-02T07:08:01.754Z,10.60
2017-08-02T07:10:29.929Z,10.45
2017-08-02T07:12:58.142Z,10.82
2017-08-02T07:15:26.317Z,11.07
2017-08-02T07:17:54.470Z,10.77
2017-08-02T07:20:22.646Z,10.75
2017-08-02T07:22:50.794Z,10.50
2017-08-02T07:25:18.965Z,11.00
2017-08-02T07:27:47.143Z,10.43
2017-08-02T07:30:15.316Z,10.50
2017-08-02T07:32:43.462Z,10.43
2017-08-02T07:35:12.428Z,10.07
2017-08-02T07:37:40.600Z,9.68
2017-08-02T07:40:08.763Z,10.20
2017-08-02T07:42:36.957Z,8.40
2017-08-02T07:45:05.123Z,8.55
2017-08-02T07:47:33.275Z,7.93
2017-08-02T07:50:01.449Z,7.30
2017-08-02T07:52:29.599Z,6.85
2017-08-02T07:54:57.747Z,6.03
2017-08-02T07:57:26.701Z,6.32
2017-08-02T07:59:54.846Z,7.37
2017-08-02T08:02:22.995Z,6.93
2017-08-02T08:04:51.957Z,7.00
2017-08-02T08:07:20.126Z,6.60
2017-08-02T08:09:48.289Z,7.22
2017-08-02T08:12:16.487Z,7.43
2017-08-02T08:14:44.643Z,7.18
2017-08-02T08:17:12.806Z,7.00
2017-08-02T08:19:41.018Z,7.85
2017-08-02T08:22:09.167Z,7.80
2017-08-02T08:24:37.328Z,6.33
2017-08-02T08:27:05.524Z,6.30
2017-08-02T08:29:33.694Z,6.00
2017-08-02T08:32:01.862Z,6.03
2017-08-02T08:34:30.046Z,6.37
2017-08-02T08:36:58.211Z,5.70
2017-08-02T08:39:26.367Z,5.03
2017-08-02T08:41:54.571Z,5.37
2017-08-02T08:44:22.742Z,4.57
2017-08-02T08:46:50.906Z,5.27
2017-08-02T08:49:19.102Z,5.17
2017-08-02T08:51:47.248Z,5.57
2017-08-02T08:54:15.402Z,4.20
2017-08-02T08:56:43.575Z,4.47
2017-08-02T08:59:11.723Z,3.73
2017-08-02T09:01:39.872Z,4.00
2017-08-02T09:04:08.046Z,4.37
2017-08-02T09:06:36.194Z,4.50
2017-08-02T09:09:04.343Z,3.93
2017-08-02T09:11:32.544Z,3.97
2017-08-02T09:14:00.698Z,4.00
2017-08-02T09:16:28.846Z,4.93
2017-08-02T09:18:57.791Z,3.83
2017-08-02T09:21:25.980Z,3.87
2017-08-02T09:23:54.159Z,3.10
2017-08-02T09:26:22.354Z,2.73
2017-08-02T09:28:51.274Z,3.60
2017-08-02T09:31:19.423Z,3.93
2017-08-02T09:33:47.618Z,4.07
2017-08-02T09:36:15.792Z,5.03
2017-08-02T09:38:43.938Z,6.10
2017-08-02T09:41:12.132Z,5.03
2017-08-02T09:43:40.285Z,5.35
2017-08-02T09:46:08.457Z,5.50
2017-08-02T09:48:36.654Z,5.18
2017-08-02T09:51:05.585Z,4.43
2017-08-02T09:53:33.756Z,5.85
2017-08-02T09:56:01.936Z,5.22
2017-08-02T09:58:30.080Z,5.12
2017-08-02T10:00:58.222Z,5.65
2017-08-02T10:03:26.417Z,6.43
2017-08-02T10:05:55.494Z,7.70
2017-08-02T10:08:23.657Z,7.82
2017-08-02T10:10:51.870Z,7.65
2017-08-02T10:13:20.040Z,7.03
2017-08-02T10:15:48.970Z,7.72
2017-08-02T10:18:17.143Z,7.32
2017-08-02T10:20:45.295Z,7.82
2017-08-02T10:23:13.466Z,8.93
2017-08-02T10:25:41.639Z,7.50
2017-08-02T10:28:09.804Z,7.45
2017-08-02T10:30:38.719Z,7.57
2017-08-02T10:33:06.894Z,7.80
2017-08-02T10:35:35.047Z,7.20
2017-08-02T10:38:03.962Z,6.03
2017-08-02T10:40:32.159Z,6.25
2017-08-02T10:43:00.329Z,5.40
2017-08-02T10:45:28.497Z,4.87
2017-08-02T10:47:56.670Z,5.00
2017-08-02T10:50:24.831Z,6.50
2017-08-02T10:52:52.996Z,5.25
2017-08-02T10:55:21.172Z,5.05
2017-08-02T10:57:49.330Z,5.22
2017-08-02T11:00:18.240Z,5.47
2017-08-02T11:02:46.414Z,4.87
2017-08-02T11:05:14.583Z,5.32
2017-08-02T11:07:42.754Z,4.30
2017-08-02T11:10:10.949Z,5.53
2017-08-02T11:12:39.103Z,6.00
2017-08-02T11:15:07.276Z,5.35
2017-08-02T11:17:35.455Z,5.35
2017-08-02T11:20:03.760Z,4.90
2017-08-02T11:22:31.934Z,5.30
2017-08-02T11:25:00.135Z,4.70
2017-08-02T11:27:28.288Z,5.00
2017-08-02T11:29:56.443Z,4.77
2017-08-02T11:32:24.641Z,4.47
2017-08-02T11:34:52.802Z,4.70
2017-08-02T11:37:20.974Z,4.50
2017-08-02T11:39:49.150Z,5.53
2017-08-02T11:42:17.298Z,5.20
2017-08-02T11:44:45.469Z,3.80
2017-08-02T11:47:13.642Z,4.30
2017-08-02T11:49:41.816Z,4.57
2017-08-02T11:52:09.989Z,4.43
2017-08-02T11:54:38.181Z,5.40
2017-08-02T11:57:06.329Z,3.97
2017-08-02T11:59:35.264Z,4.10
2017-08-02T12:02:03.456Z,4.77
2017-08-02T12:04:31.630Z,5.00
2017-08-02T12:06:59.782Z,5.50
2017-08-02T12:09:27.967Z,5.57
2017-08-02T12:11:56.140Z,4.33
2017-08-02T12:14:24.290Z,4.60
2017-08-02T12:16:52.494Z,4.67
2017-08-02T12:19:20.670Z,4.10
2017-08-02T12:21:48.817Z,4.67
2017-08-02T12:24:17.002Z,4.50
2017-08-02T12:26:45.157Z,4.55
2017-08-02T12:29:13.306Z,5.20
2017-08-02T12:31:41.504Z,3.87
2017-08-02T12:34:09.657Z,4.72
2017-08-02T12:36:37.824Z,4.15
2017-08-02T12:39:06.006Z,4.30
2017-08-02T12:41:34.172Z,5.32
2017-08-02T12:44:02.318Z,5.00
2017-08-02T12:46:30.493Z,4.90
2017-08-02T12:48:58.650Z,4.90
2017-08-02T12:51:26.816Z,4.40
2017-08-02T12:53:55.016Z,5.30
2017-08-02T12:56:23.165Z,4.25
2017-08-02T12:58:51.333Z,5.40
2017-08-02T13:01:19.506Z,5.25
2017-08-02T13:03:47.673Z,5.40
2017-08-02T13:06:16.607Z,5.05
2017-08-02T13:08:44.782Z,4.90
2017-08-02T13:11:12.955Z,4.55
2017-08-02T13:13:41.126Z,5.18
2017-08-02T13:16:09.301Z,5.10
2017-08-02T13:18:37.465Z,5.37
2017-08-02T13:21:05.610Z,5.50
2017-08-02T13:23:34.557Z,4.75
2017-08-02T13:26:02.707Z,6.57
2017-08-02T13:28:30.899Z,6.10
2017-08-02T13:30:59.070Z,6.30
2017-08-02T13:33:27.215Z,5.78
2017-08-02T13:35:55.378Z,6.37
2017-08-02T13:38:24.336Z,5.80
2017-08-02T13:40:52.482Z,6.25
2017-08-02T13:43:20.657Z,5.90
2017-08-02T13:45:48.849Z,5.47
2017-08-02T13:48:17.009Z,5.60
2017-08-02T13:50:45.937Z,4.95
2017-08-02T13:53:14.116Z,6.25
2017-08-02T13:55:42.285Z,5.95
2017-08-02T13:58:10.459Z,6.43
2017-08-02T14:00:38.632Z,7.47
2017-08-02T14:03:06.800Z,8.40
2017-08-02T14:05:34.955Z,9.50
2017-08-02T14:08:03.157Z,10.32
2017-08-02T14:10:31.330Z,11.85
2017-08-02T14:12:59.498Z,11.12
2017-08-02T14:15:27.701Z,10.57
2017-08-02T14:17:56.618Z,10.50
2017-08-02T14:20:24.784Z,10.20
2017-08-02T14:22:52.988Z,11.52
2017-08-02T14:25:21.155Z,12.27
2017-08-02T14:27:49.327Z,11.63
2017-08-02T14:30:17.498Z,10.25
2017-08-02T14:32:45.642Z,12.07
2017-08-02T14:35:13.819Z,11.12
2017-08-02T14:37:42.767Z,10.48
2017-08-02T14:40:10.946Z,10.85
2017-08-02T14:42:39.099Z,11.00
2017-08-02T14:45:07.279Z,10.63
2017-08-02T14:47:35.432Z,10.35
2017-08-02T14:50:03.586Z,11.77
2017-08-02T14:52:32.526Z,11.45
2017-08-02T14:55:00.701Z,11.35
2017-08-02T14:57:28.855Z,9.27
2017-08-02T14:59:57.056Z,10.30
2017-08-02T15:02:25.228Z,10.27
2017-08-02T15:04:53.386Z,10.15
2017-08-02T15:07:21.571Z,11.07
2017-08-02T15:09:49.740Z,11.35
2017-08-02T15:12:17.916Z,11.00
2017-08-02T15:14:46.115Z,11.12
2017-08-02T15:17:14.271Z,11.25
2017-08-02T15:19:42.448Z,10.52
2017-08-02T15:22:10.630Z,11.43
2017-08-02T15:24:38.802Z,12.27
2017-08-02T15:27:06.951Z,11.70
2017-08-02T15:29:35.133Z,12.10
2017-08-02T15:32:03.307Z,14.50
2017-08-02T15:34:31.457Z,14.80
2017-08-02T15:36:59.641Z,17.62
2017-08-02T15:39:27.824Z,16.55
2017-08-02T15:41:56.003Z,17.37
2017-08-02T15:44:24.213Z,19.20
2017-08-02T15:46:52.370Z,17.45
2017-08-02T15:49:20.545Z,18.17
2017-08-02T15:51:48.757Z,18.67
2017-08-02T15:54:17.683Z,19.00
2017-08-02T15:56:45.858Z,19.98
2017-08-02T15:59:14.064Z,21.27
2017-08-02T16:01:42.242Z,21.55
2017-08-02T16:04:10.418Z,22.70
2017-08-02T16:06:38.619Z,22.65
2017-08-02T16:09:07.562Z,26.75
2017-08-02T16:11:35.713Z,24.58
2017-08-02T16:14:03.917Z,24.40
2017-08-02T16:16:32.088Z,26.30
2017-08-02T16:19:00.242Z,24.90
2017-08-02T16:21:28.437Z,27.55
2017-08-02T16:23:56.604Z,24.75
2017-08-02T16:26:24.767Z,24.12
2017-08-02T16:28:52.947Z,21.60
2017-08-02T16:31:21.122Z,21.70
2017-08-02T16:33:49.270Z,22.13
2017-08-02T16:36:18.237Z,22.02
2017-08-02T16:38:46.392Z,21.75
2017-08-02T16:41:14.561Z,20.80
2017-08-02T16:43:42.764Z,21.98
2017-08-02T16:46:10.914Z,18.20
2017-08-02T16:48:39.084Z,17.95
2017-08-02T16:51:07.282Z,24.00
2017-08-02T16:53:35.457Z,18.08
2017-08-02T16:56:03.629Z,22.23
2017-08-02T16:58:31.828Z,18.67
2017-08-02T17:01:00.769Z,19.20
2017-08-02T17:03:28.945Z,15.75
2017-08-02T17:05:57.136Z,16.55
2017-08-02T17:08:25.305Z,13.50
2017-08-02T17:10:53.454Z,14.98
2017-08-02T17:13:21.657Z,12.07
2017-08-02T17:15:49.828Z,11.25
2017-08-02T17:18:17.974Z,9.30
2017-08-02T17:20:46.161Z,8.20
2017-08-02T17:23:14.314Z,8.07
2017-08-02T17:25:42.457Z,7.37
2017-08-02T17:28:10.635Z,7.25
2017-08-02T17:30:39.554Z,5.78
2017-08-02T17:33:07.986Z,5.78
2017-08-02T17:35:36.479Z,6.10
2017-08-02T17:38:04.947Z,5.80
2017-08-02T17:40:33.147Z,6.40
2017-08-02T17:43:02.102Z,4.68
2017-08-02T17:45:30.249Z,4.80
2017-08-02T17:47:58.399Z,5.03
2017-08-02T17:50:27.362Z,4.25
2017-08-02T17:52:55.526Z,4.80
2017-08-02T17:55:23.671Z,5.30
2017-08-02T17:57:51.838Z,4.90
2017-08-02T18:00:20.029Z,4.40
2017-08-02T18:02:48.169Z,5.00
2017-08-02T18:05:16.341Z,4.40
2017-08-02T18:07:45.273Z,4.00
2017-08-02T18:10:13.448Z,4.12
2017-08-02T18:12:41.669Z,4.45
2017-08-02T18:15:10.604Z,3.72
2017-08-02T18:17:38.773Z,3.62
2017-08-02T18:20:06.979Z,4.35
2017-08-02T18:22:35.126Z,4.00
2017-08-02T18:25:03.277Z,4.35
2017-08-02T18:27:32.232Z,4.07
2017-08-02T18:30:00.392Z,3.95
2017-08-02T18:32:28.539Z,4.37
2017-08-02T18:34:56.731Z,3.60
2017-08-02T18:37:24.894Z,4.95
2017-08-02T18:39:53.044Z,3.80
2017-08-02T18:42:21.220Z,3.92
2017-08-02T18:44:49.605Z,5.68
2017-08-02T18:47:17.755Z,5.50
2017-08-02T18:49:45.928Z,5.22
2017-08-02T18:52:14.095Z,5.55
2017-08-02T18:54:42.274Z,7.35
2017-08-02T18:57:11.215Z,7.03
2017-08-02T18:59:39.394Z,6.37
2017-08-02T19:02:07.565Z,5.28
2017-08-02T19:04:35.737Z,5.70
2017-08-02T19:07:03.904Z,6.72
2017-08-02T19:09:32.068Z,6.12
2017-08-02T19:12:00.264Z,7.65
2017-08-02T19:14:28.438Z,7.90
2017-08-02T19:16:56.584Z,9.30
2017-08-02T19:19:24.815Z,10.50
2017-08-02T19:21:52.987Z,12.82
2017-08-02T19:24:21.139Z,12.27
2017-08-02T19:26:49.341Z,10.60
2017-08-02T19:29:17.486Z,9.98
2017-08-02T19:31:45.653Z,9.85
2017-08-02T19:34:13.857Z,10.32
2017-08-02T19:36:42.013Z,10.98
2017-08-02T19:39:10.192Z,10.85
2017-08-02T19:41:38.375Z,10.93
2017-08-02T19:44:06.544Z,8.60
2017-08-02T19:46:34.695Z,10.30
2017-08-02T19:49:02.882Z,11.00
2017-08-02T19:51:31.045Z,10.00
2017-08-02T19:53:59.189Z,8.93
2017-08-02T19:56:28.157Z,11.43
2017-08-02T19:58:56.361Z,14.00
2017-08-02T20:01:24.541Z,14.52
2017-08-02T20:03:53.504Z,15.55
2017-08-02T20:06:21.663Z,11.82
2017-08-02T20:08:49.825Z,13.93
2017-08-02T20:11:18.002Z,10.00
2017-08-02T20:13:46.155Z,10.40
2017-08-02T20:16:14.330Z,10.88
2017-08-02T20:18:42.524Z,8.60
2017-08-02T20:21:10.689Z,8.75
2017-08-02T20:23:38.842Z,13.57
2017-08-02T20:26:07.042Z,11.90
2017-08-02T20:28:35.199Z,10.68
2017-08-02T20:31:03.364Z,8.05
2017-08-02T20:33:31.565Z,7.68
2017-08-02T20:35:59.716Z,8.57
2017-08-02T20:38:27.880Z,7.93
2017-08-02T20:40:56.066Z,8.57
2017-08-02T20:43:24.215Z,8.20
2017-08-02T20:45:53.148Z,9.25
2017-08-02T20:48:21.345Z,9.43
2017-08-02T20:50:49.508Z,10.60
2017-08-02T20:53:17.677Z,9.75
2017-08-02T20:55:45.851Z,10.88
2017-08-02T20:58:14.001Z,10.77
2017-08-02T21:00:42.170Z,11.57
2017-08-02T21:03:10.371Z,11.43
2017-08-02T21:05:38.527Z,11.88
2017-08-02T21:08:06.685Z,12.68
2017-08-02T21:10:35.650Z,13.65
2017-08-02T21:13:03.806Z,13.70
2017-08-02T21:15:31.979Z,13.27
2017-08-02T21:18:00.182Z,14.02
2017-08-02T21:20:29.123Z,15.25
2017-08-02T21:22:57.284Z,15.02
2017-08-02T21:25:25.902Z,18.08
2017-08-02T21:27:54.078Z,18.42
2017-08-02T21:30:22.228Z,21.25
2017-08-02T21:32:50.436Z,23.30
2017-08-02T21:35:18.591Z,23.33
2017-08-02T21:37:46.742Z,25.25
2017-08-02T21:40:14.924Z,23.75
2017-08-02T21:42:43.069Z,24.77
2017-08-02T21:45:12.008Z,23.73
2017-08-02T21:47:40.194Z,22.92
2017-08-02T21:50:08.382Z,23.48
2017-08-02T21:52:36.562Z,24.85
2017-08-02T21:55:04.754Z,22.77
2017-08-02T21:57:33.690Z,23.33
2017-08-02T22:00:01.861Z,23.05
2017-08-02T22:02:30.047Z,23.80
2017-08-02T22:04:58.202Z,23.42
2017-08-02T22:07:26.374Z,24.45
2017-08-02T22:09:54.573Z,22.85
2017-08-02T22:12:22.757Z,21.25
2017-08-02T22:14:50.919Z,22.23
2017-08-02T22:17:19.112Z,22.02
2017-08-02T22:19:47.293Z,21.50
2017-08-02T22:22:15.438Z,21.92
2017-08-02T22:24:43.636Z,19.62
2017-08-02T22:27:11.786Z,21.20
2017-08-02T22:29:39.942Z,18.85
2017-08-02T22:32:08.114Z,14.95
2017-08-02T22:34:36.286Z,15.85
2017-08-02T22:37:04.440Z,13.52
2017-08-02T22:39:32.641Z,13.70
2017-08-02T22:42:00.818Z,13.20
2017-08-02T22:44:29.008Z,13.10
2017-08-02T22:46:57.211Z,12.85
2017-08-02T22:49:25.367Z,13.20
2017-08-02T22:51:53.516Z,11.77
2017-08-02T22:54:21.717Z,11.48
2017-08-02T22:56:49.888Z,10.48
2017-08-02T22:59:18.056Z,10.85
2017-08-02T23:01:46.261Z,11.32
2017-08-02T23:04:14.433Z,10.68
2017-08-02T23:06:42.604Z,10.63
2017-08-02T23:09:10.809Z,11.18
2017-08-02T23:11:39.745Z,10.70
2017-08-02T23:14:07.894Z,11.25
2017-08-02T23:16:36.856Z,11.12
2017-08-02T23:19:05.028Z,10.68
2017-08-02T23:21:33.182Z,11.23
2017-08-02T23:24:01.374Z,10.75
2017-08-02T23:26:29.548Z,10.77
2017-08-02T23:28:57.702Z,10.07
2017-08-02T23:31:25.897Z,11.27
2017-08-02T23:33:54.063Z,9.77
2017-08-02T23:36:22.223Z,10.68
2017-08-02T23:38:50.426Z,9.52
2017-08-02T23:41:18.601Z,10.45
2017-08-02T23:43:46.773Z,9.52
2017-08-02T23:46:14.954Z,11.45
2017-08-02T23:48:43.118Z,9.07
2017-08-02T23:51:11.297Z,8.85
2017-08-02T23:53:39.525Z,8.75
2017-08-02T23:56:07.672Z,9.70
2017-08-02T23:58:36.609Z,9.65
